Addison Township, Michigan
Current Conditions -  °F | °C
As of 11:13 PM on Friday 31 Oct 2014 (Local Time) from KD95 Reporting Station
Overcast Overcast  
Wind Chill: -4°   Ceiling: 1800
Heat Index:   Visibility: 10mi
Dew Point:   Wind: 15mph
Humidity: 92%   Direction: 20°NNE
Pressure: 30.15"   Gusts: 23mph
Location:  42.8434°N, 83.1398°W
Report Text: KD95 010313Z AUTO 02013G20KT 10SM OVC018 01/00 A3015 RMK AO2 T00101001
Loading
Personal Weather Stations






























Interactive Weather Map
Tropical Storm Tracking
New forecast layout! Learn more

10-Day Weather Forecast

Advertisements
Track Severe Weather on mobile